Guayaquil, Ecuador

5:24 PM ECT en Agosto 20, 2014 (GMT -0500)
Jose Joaquin de Olmedo | Change Station
CLOSE
Current Station
Aeropuerto
Location: Guayaquil,
Altura: 30 ft
Estaciones meteorológicas cercanas

Alt 30 ft 2.16 °S, 79.88 °W | Updated 24 minutes ago

Mostly Cloudy
Muy nublado
81 ° F
Sensación térmica 84 ° F
N
9
Viento Variable Viento desde Sur

Hoy
Alta -- | Baja -- ° F
--% Posibilidad de precipitaciones
Ayer
Alta -- | Baja -- ° F
Precip. -- pul
6:21 AM 6:24 PM
Creciente menguante, 19% visible
Presión 29.80 pul
Visibilidad 6.2 Millas
Nubes Baja 3000 ft
Nubes dispersas 3300 ft
Muy nublado 10000 ft
Índice de calor 84 ° F
Punto de rocío 70 ° F
Humedad 70%
Precipitaciones 0.00 pul
Espesor de la nieve No disponible.
UV 1 de una escala de 12
Polen No disponible.
Calidad del aire No disponible.
Flu Activity No disponible.
METAR SEGU 202200Z 18008KT 9999 FEW030 SCT033 BKN100 27/21 Q1009 A2981 NOSIG

More Conditions Fewer Conditions

Presión 29.80 pul
Visibilidad 6.2 Millas
Nubes Baja 3000 ft
Nubes dispersas 3300 ft
Muy nublado 10000 ft
Índice de calor 84 ° F
Punto de rocío 70 ° F
Humedad 70%
Precipitaciones 0.00 pul
Espesor de la nieve No disponible.
UV 1 de una escala de 12
Polen No disponible.
Calidad del aire No disponible.
Flu Activity No disponible.
METAR SEGU 202200Z 18008KT 9999 FEW030 SCT033 BKN100 27/21 Q1009 A2981 NOSIG

More Conditions Fewer Conditions

10-Day Weather Forecast

Almanac

Astronomía

Aug. 20, 2014 Salida Puesta
Hora real 6:21 AM ECT 6:24 PM ECT
Crepúsculo civil 6:00 AM ECT 6:45 PM ECT
Crepúsculo náutico 5:35 AM ECT 7:10 PM ECT
Crepúsculo astronómico 5:11 AM ECT 7:34 PM ECT
Luna 2:25 AM ECT 2:43 PM ECT
Horas de luz 12h 45m
Horas de luz
12h 02m
Tomorrow will be 0m 6s longer.
Creciente menguante, 19% of the Moon is Illuminated
Hoy
Creciente menguante
Ago 25
Nueva
Sep 2
Cuarto creciente
Sep 8
Luna llena
Sep 15
Cuarto menguante

Extremos de hoy

Máximos del país Bajas del país

Community

WunderPhotos

Upload Photos

1,745,779 ¡fotos cargadas!

Nearby

Calidad del aire

Not available.

Grosos de nieve

Not available.

Actividad de terremotos

Ciudad Distance Mag. Tiempo y dato
No hay informes recientes de la actividad sísmica.
Magnitud mínima muestra es 2,5.

Temperaturas de aguas costeras

Lugar Temperatura
Sin partes meteorológicos de las estaciones

Estaciones meteorológicas cercanas